Whatley Landing, Louisiana
Current Conditions -  °F | °C
As of 11:53 AM on Thursday 30 Oct 2014 (Local Time) from KESF Reporting Station
Clear Clear  
Wind Chill: 69°   Ceiling: Unl
Heat Index: 69°   Visibility: 10mi
Dew Point: 45°   Wind: 8mph
Humidity: 42%   Direction: 90°E
Pressure: 30.16"   Gusts: NA
Location:  31.6376°N, 92.2485°W
Report Text: KESF 301653Z AUTO 09007KT 10SM CLR 21/07 A3016 RMK AO2 SLP211 T02060072
Loading
Personal Weather Stations






























Interactive Weather Map
Tropical Storm Tracking
New forecast layout! Learn more

10-Day Weather Forecast

Advertisements
Track Severe Weather on mobile